CFB Cold Lake
CYOD : now visible

Airfield :











YOU CAN JOIN US ON...

 
LOGIN :

Register | Disclaimer

   EN    FR    IT 

 









Legend :    VFR   Marginal VFR   IFR   Intensive IFR   Very Intensive IFR
Visi :
Ceiling :
>= 8 km
>= 3000ft
5 to 8 km
1000 to 3000 ft
1500m to 5 km
500 to 1000 ft
800 to 1500m
200 to 500 ft
< 800m
< 200 ft
Symbols :   Thunderstorms  Fog  Heavy snow  Heavy precipitations  Wind > 20 kt






- Airport Elevation : 1775 ft
- IATA code : YOD


CYOD - CFB Cold Lake

CURRENT METAR :
  • 091000Z 34015KT 10SM -SHSN OVC023 M12/M18 A2997 RMK SC8 SLP194

EXPIRED METARs :
  • 090900Z 36009KT 8SM -SHSN OVC018 M11/M14 A2993 RMK SC8 SLP181
  • 090800Z 30008KT 15SM -SHSN OVC017 M12/M14 A2990 RMK SC8 SLP172

TAF TAF CYOD
Valid from the 09 at 06:00 until the 10 at 06:00 UTC


090530Z 0906/1006 27005KT P6SM SCT015 OVC030
TEMPO 0906/0909 5SM -SHSN OVC015
FM090900 30005KT P6SM SCT015 BKN025
TEMPO 0909/0911 BKN015
FM091300 34005KT P6SM FEW025 SCT200
FM091800 VRB03KT P6SM SKC RMK NXT FCST BY 091200Z



MET'MAP, your aeronautical weather chart ! - Copyright ORBIFLY December 2007 - Disclaimer

ORBIFLY MET'MAP TEAM :

Programming & Development : Alexandra Zaïnal
Concept & original design : Baudouin d'Aumeries
Assistance for programming : Marc-Olivier Méhu
Technical & hardware support : Manuel Goepfert

Contact : metmap@orbifly.com




SOURCES & CREDITS :

   NOAA       Earth
Advisory